sensor_id;sensor_type;location;lat;lon;timestamp;P1;durP1;ratioP1;P2;durP2;ratioP2
8060;SDS011;4073;42.626;25.386;2023-04-03T00:01:09;2.63;;;2.43;;
8060;SDS011;4073;42.626;25.386;2023-04-03T00:03:35;2.20;;;1.90;;
8060;SDS011;4073;42.626;25.386;2023-04-03T00:06:01;5.00;;;4.60;;
8060;SDS011;4073;42.626;25.386;2023-04-03T00:08:28;1.97;;;1.57;;
8060;SDS011;4073;42.626;25.386;2023-04-03T00:10:55;2.27;;;1.70;;
8060;SDS011;4073;42.626;25.386;2023-04-03T00:13:21;2.60;;;1.73;;
8060;SDS011;4073;42.626;25.386;2023-04-03T00:15:47;6.03;;;4.20;;
8060;SDS011;4073;42.626;25.386;2023-04-03T00:18:12;3.17;;;2.43;;
8060;SDS011;4073;42.626;25.386;2023-04-03T00:20:37;2.07;;;1.70;;
8060;SDS011;4073;42.626;25.386;2023-04-03T00:23:03;2.10;;;1.90;;
8060;SDS011;4073;42.626;25.386;2023-04-03T00:25:28;2.27;;;2.07;;
8060;SDS011;4073;42.626;25.386;2023-04-03T00:27:54;2.07;;;1.87;;
8060;SDS011;4073;42.626;25.386;2023-04-03T00:30:20;2.00;;;1.80;;
8060;SDS011;4073;42.626;25.386;2023-04-03T00:32:49;1.90;;;1.67;;
8060;SDS011;4073;42.626;25.386;2023-04-03T00:35:16;2.13;;;1.93;;
8060;SDS011;4073;42.626;25.386;2023-04-03T00:37:43;3.90;;;3.60;;
8060;SDS011;4073;42.626;25.386;2023-04-03T00:40:09;4.93;;;4.20;;
8060;SDS011;4073;42.626;25.386;2023-04-03T00:42:37;3.70;;;3.40;;
8060;SDS011;4073;42.626;25.386;2023-04-03T00:47:28;4.37;;;3.97;;
8060;SDS011;4073;42.626;25.386;2023-04-03T00:49:55;4.03;;;3.63;;
8060;SDS011;4073;42.626;25.386;2023-04-03T00:52:23;5.23;;;3.90;;
8060;SDS011;4073;42.626;25.386;2023-04-03T00:54:54;3.93;;;3.50;;
8060;SDS011;4073;42.626;25.386;2023-04-03T00:57:23;3.77;;;3.47;;
8060;SDS011;4073;42.626;25.386;2023-04-03T00:59:49;5.87;;;3.00;;
8060;SDS011;4073;42.626;25.386;2023-04-03T01:02:19;2.80;;;2.60;;
8060;SDS011;4073;42.626;25.386;2023-04-03T01:04:45;3.33;;;3.03;;
8060;SDS011;4073;42.626;25.386;2023-04-03T01:07:13;4.17;;;3.53;;
8060;SDS011;4073;42.626;25.386;2023-04-03T01:09:43;5.07;;;3.50;;
8060;SDS011;4073;42.626;25.386;2023-04-03T01:14:43;4.50;;;3.97;;
8060;SDS011;4073;42.626;25.386;2023-04-03T01:22:59;4.87;;;3.50;;
8060;SDS011;4073;42.626;25.386;2023-04-03T01:25:30;4.23;;;3.27;;
8060;SDS011;4073;42.626;25.386;2023-04-03T01:27:56;4.50;;;3.03;;
8060;SDS011;4073;42.626;25.386;2023-04-03T01:30:23;3.97;;;3.03;;
8060;SDS011;4073;42.626;25.386;2023-04-03T01:32:56;3.27;;;2.60;;
8060;SDS011;4073;42.626;25.386;2023-04-03T01:35:22;2.63;;;2.43;;
8060;SDS011;4073;42.626;25.386;2023-04-03T01:37:47;3.43;;;2.80;;
8060;SDS011;4073;42.626;25.386;2023-04-03T01:40:13;3.30;;;3.00;;
8060;SDS011;4073;42.626;25.386;2023-04-03T01:42:38;5.30;;;2.83;;
8060;SDS011;4073;42.626;25.386;2023-04-03T01:45:04;2.40;;;2.20;;
8060;SDS011;4073;42.626;25.386;2023-04-03T01:47:30;2.87;;;2.43;;
8060;SDS011;4073;42.626;25.386;2023-04-03T01:49:55;3.23;;;2.93;;
8060;SDS011;4073;42.626;25.386;2023-04-03T01:52:21;2.93;;;2.73;;
8060;SDS011;4073;42.626;25.386;2023-04-03T01:54:46;3.47;;;3.17;;
8060;SDS011;4073;42.626;25.386;2023-04-03T01:57:12;3.83;;;3.30;;
8060;SDS011;4073;42.626;25.386;2023-04-03T01:59:39;3.13;;;2.80;;
8060;SDS011;4073;42.626;25.386;2023-04-03T02:02:05;13.97;;;3.47;;
8060;SDS011;4073;42.626;25.386;2023-04-03T02:04:31;5.43;;;4.00;;
8060;SDS011;4073;42.626;25.386;2023-04-03T02:06:56;20.50;;;10.60;;
8060;SDS011;4073;42.626;25.386;2023-04-03T02:09:21;37.63;;;15.00;;
8060;SDS011;4073;42.626;25.386;2023-04-03T02:11:47;22.43;;;10.23;;
8060;SDS011;4073;42.626;25.386;2023-04-03T02:14:31;16.47;;;6.93;;
8060;SDS011;4073;42.626;25.386;2023-04-03T02:16:56;8.10;;;4.90;;
8060;SDS011;4073;42.626;25.386;2023-04-03T02:19:22;5.10;;;3.80;;
8060;SDS011;4073;42.626;25.386;2023-04-03T02:21:47;3.67;;;3.20;;
8060;SDS011;4073;42.626;25.386;2023-04-03T02:24:13;5.43;;;2.93;;
8060;SDS011;4073;42.626;25.386;2023-04-03T02:26:38;5.00;;;2.93;;
8060;SDS011;4073;42.626;25.386;2023-04-03T02:29:04;3.37;;;3.07;;
8060;SDS011;4073;42.626;25.386;2023-04-03T02:31:29;4.67;;;3.70;;
8060;SDS011;4073;42.626;25.386;2023-04-03T02:33:55;3.93;;;3.53;;
8060;SDS011;4073;42.626;25.386;2023-04-03T02:36:20;7.00;;;4.20;;
8060;SDS011;4073;42.626;25.386;2023-04-03T02:38:46;3.70;;;3.33;;
8060;SDS011;4073;42.626;25.386;2023-04-03T02:41:11;3.73;;;3.33;;
8060;SDS011;4073;42.626;25.386;2023-04-03T02:43:37;3.13;;;2.83;;
8060;SDS011;4073;42.626;25.386;2023-04-03T02:46:03;3.77;;;3.37;;
8060;SDS011;4073;42.626;25.386;2023-04-03T02:48:30;3.60;;;3.20;;
8060;SDS011;4073;42.626;25.386;2023-04-03T02:50:55;3.93;;;2.70;;
8060;SDS011;4073;42.626;25.386;2023-04-03T02:53:21;3.10;;;2.87;;
8060;SDS011;4073;42.626;25.386;2023-04-03T02:55:47;3.77;;;2.63;;
8060;SDS011;4073;42.626;25.386;2023-04-03T02:58:13;3.50;;;2.60;;
8060;SDS011;4073;42.626;25.386;2023-04-03T03:00:39;3.27;;;2.60;;
8060;SDS011;4073;42.626;25.386;2023-04-03T03:03:05;3.40;;;2.63;;
8060;SDS011;4073;42.626;25.386;2023-04-03T03:05:30;2.80;;;2.50;;
8060;SDS011;4073;42.626;25.386;2023-04-03T03:07:56;3.63;;;2.80;;
8060;SDS011;4073;42.626;25.386;2023-04-03T03:10:21;2.60;;;2.40;;
8060;SDS011;4073;42.626;25.386;2023-04-03T03:12:47;2.50;;;2.30;;
8060;SDS011;4073;42.626;25.386;2023-04-03T03:15:13;3.07;;;2.53;;
8060;SDS011;4073;42.626;25.386;2023-04-03T03:17:38;2.90;;;2.27;;
8060;SDS011;4073;42.626;25.386;2023-04-03T03:20:04;2.67;;;2.30;;
8060;SDS011;4073;42.626;25.386;2023-04-03T03:22:31;2.53;;;2.33;;
8060;SDS011;4073;42.626;25.386;2023-04-03T03:24:57;3.40;;;3.10;;
8060;SDS011;4073;42.626;25.386;2023-04-03T03:27:22;4.60;;;3.20;;
8060;SDS011;4073;42.626;25.386;2023-04-03T03:29:49;4.43;;;3.90;;
8060;SDS011;4073;42.626;25.386;2023-04-03T03:32:14;7.87;;;4.63;;
8060;SDS011;4073;42.626;25.386;2023-04-03T03:34:40;6.27;;;4.30;;
8060;SDS011;4073;42.626;25.386;2023-04-03T03:37:05;5.63;;;5.10;;
8060;SDS011;4073;42.626;25.386;2023-04-03T03:39:31;6.00;;;4.70;;
8060;SDS011;4073;42.626;25.386;2023-04-03T03:41:56;5.57;;;4.80;;
8060;SDS011;4073;42.626;25.386;2023-04-03T03:44:22;8.97;;;4.70;;
8060;SDS011;4073;42.626;25.386;2023-04-03T03:46:47;6.00;;;4.50;;
8060;SDS011;4073;42.626;25.386;2023-04-03T03:49:13;5.80;;;5.20;;
8060;SDS011;4073;42.626;25.386;2023-04-03T03:51:38;8.10;;;4.97;;
8060;SDS011;4073;42.626;25.386;2023-04-03T03:54:05;6.10;;;4.57;;
8060;SDS011;4073;42.626;25.386;2023-04-03T03:56:31;4.63;;;4.03;;
8060;SDS011;4073;42.626;25.386;2023-04-03T03:58:56;4.87;;;4.10;;
8060;SDS011;4073;42.626;25.386;2023-04-03T04:01:22;6.37;;;5.10;;
8060;SDS011;4073;42.626;25.386;2023-04-03T04:03:49;11.80;;;5.37;;
8060;SDS011;4073;42.626;25.386;2023-04-03T04:06:15;6.90;;;5.03;;
8060;SDS011;4073;42.626;25.386;2023-04-03T04:08:41;6.37;;;5.33;;
8060;SDS011;4073;42.626;25.386;2023-04-03T04:11:07;8.50;;;6.47;;
8060;SDS011;4073;42.626;25.386;2023-04-03T04:13:33;10.87;;;8.80;;
8060;SDS011;4073;42.626;25.386;2023-04-03T04:15:58;8.73;;;6.97;;
8060;SDS011;4073;42.626;25.386;2023-04-03T04:18:24;9.80;;;8.17;;
8060;SDS011;4073;42.626;25.386;2023-04-03T04:20:50;13.20;;;7.53;;
8060;SDS011;4073;42.626;25.386;2023-04-03T04:23:16;11.27;;;6.50;;
8060;SDS011;4073;42.626;25.386;2023-04-03T04:25:44;11.90;;;7.87;;
8060;SDS011;4073;42.626;25.386;2023-04-03T04:28:11;15.03;;;7.07;;
8060;SDS011;4073;42.626;25.386;2023-04-03T04:30:37;6.53;;;5.07;;
8060;SDS011;4073;42.626;25.386;2023-04-03T04:33:03;8.40;;;4.80;;
8060;SDS011;4073;42.626;25.386;2023-04-03T04:35:28;5.97;;;4.50;;
8060;SDS011;4073;42.626;25.386;2023-04-03T04:37:54;6.70;;;4.73;;
8060;SDS011;4073;42.626;25.386;2023-04-03T04:40:20;10.57;;;8.40;;
8060;SDS011;4073;42.626;25.386;2023-04-03T04:42:45;11.73;;;8.43;;
8060;SDS011;4073;42.626;25.386;2023-04-03T04:45:11;10.20;;;7.70;;
8060;SDS011;4073;42.626;25.386;2023-04-03T04:47:37;7.07;;;6.00;;
8060;SDS011;4073;42.626;25.386;2023-04-03T04:50:02;7.43;;;5.90;;
8060;SDS011;4073;42.626;25.386;2023-04-03T04:52:28;10.73;;;5.93;;
8060;SDS011;4073;42.626;25.386;2023-04-03T04:54:53;8.03;;;4.33;;
8060;SDS011;4073;42.626;25.386;2023-04-03T04:57:19;6.50;;;5.13;;
8060;SDS011;4073;42.626;25.386;2023-04-03T04:59:44;10.57;;;5.30;;
8060;SDS011;4073;42.626;25.386;2023-04-03T05:02:10;5.73;;;4.60;;
8060;SDS011;4073;42.626;25.386;2023-04-03T05:04:35;5.83;;;4.03;;
8060;SDS011;4073;42.626;25.386;2023-04-03T05:07:01;8.03;;;5.50;;
8060;SDS011;4073;42.626;25.386;2023-04-03T05:09:26;9.33;;;5.60;;
8060;SDS011;4073;42.626;25.386;2023-04-03T05:11:52;8.27;;;6.37;;
8060;SDS011;4073;42.626;25.386;2023-04-03T05:14:17;11.67;;;9.17;;
8060;SDS011;4073;42.626;25.386;2023-04-03T05:16:43;9.90;;;7.97;;
8060;SDS011;4073;42.626;25.386;2023-04-03T05:19:08;12.13;;;6.17;;
8060;SDS011;4073;42.626;25.386;2023-04-03T05:21:34;9.87;;;6.20;;
8060;SDS011;4073;42.626;25.386;2023-04-03T05:23:59;6.87;;;6.17;;
8060;SDS011;4073;42.626;25.386;2023-04-03T05:26:28;6.60;;;4.73;;
8060;SDS011;4073;42.626;25.386;2023-04-03T05:28:55;11.87;;;5.07;;
8060;SDS011;4073;42.626;25.386;2023-04-03T05:31:20;5.63;;;5.10;;
8060;SDS011;4073;42.626;25.386;2023-04-03T05:33:46;6.23;;;4.43;;
8060;SDS011;4073;42.626;25.386;2023-04-03T05:36:11;4.63;;;3.90;;
8060;SDS011;4073;42.626;25.386;2023-04-03T05:38:37;4.53;;;3.70;;
8060;SDS011;4073;42.626;25.386;2023-04-03T05:41:03;4.40;;;3.80;;
8060;SDS011;4073;42.626;25.386;2023-04-03T05:43:29;8.90;;;4.93;;
8060;SDS011;4073;42.626;25.386;2023-04-03T05:45:55;4.83;;;4.20;;
8060;SDS011;4073;42.626;25.386;2023-04-03T05:48:20;6.93;;;5.23;;
8060;SDS011;4073;42.626;25.386;2023-04-03T05:50:46;6.03;;;4.80;;
8060;SDS011;4073;42.626;25.386;2023-04-03T05:53:20;18.10;;;8.17;;
8060;SDS011;4073;42.626;25.386;2023-04-03T05:55:49;12.00;;;4.60;;
8060;SDS011;4073;42.626;25.386;2023-04-03T05:58:15;8.83;;;6.53;;
8060;SDS011;4073;42.626;25.386;2023-04-03T06:00:40;17.50;;;9.00;;
8060;SDS011;4073;42.626;25.386;2023-04-03T06:03:06;12.40;;;7.37;;
8060;SDS011;4073;42.626;25.386;2023-04-03T06:05:32;6.13;;;3.87;;
8060;SDS011;4073;42.626;25.386;2023-04-03T06:07:58;3.20;;;2.77;;
8060;SDS011;4073;42.626;25.386;2023-04-03T06:10:23;6.53;;;3.47;;
8060;SDS011;4073;42.626;25.386;2023-04-03T06:12:49;9.17;;;6.10;;
8060;SDS011;4073;42.626;25.386;2023-04-03T06:15:15;2.97;;;2.73;;
8060;SDS011;4073;42.626;25.386;2023-04-03T06:17:42;4.53;;;4.13;;
8060;SDS011;4073;42.626;25.386;2023-04-03T06:20:07;8.50;;;5.57;;
8060;SDS011;4073;42.626;25.386;2023-04-03T06:22:34;25.90;;;12.63;;
8060;SDS011;4073;42.626;25.386;2023-04-03T06:25:00;7.73;;;5.90;;
8060;SDS011;4073;42.626;25.386;2023-04-03T06:27:26;6.77;;;5.20;;
8060;SDS011;4073;42.626;25.386;2023-04-03T06:29:52;12.30;;;7.20;;
8060;SDS011;4073;42.626;25.386;2023-04-03T06:32:17;9.07;;;6.13;;
8060;SDS011;4073;42.626;25.386;2023-04-03T06:34:43;20.33;;;11.50;;
8060;SDS011;4073;42.626;25.386;2023-04-03T06:37:18;15.87;;;9.13;;
8060;SDS011;4073;42.626;25.386;2023-04-03T06:39:45;9.00;;;7.33;;
8060;SDS011;4073;42.626;25.386;2023-04-03T06:42:11;6.70;;;5.27;;
8060;SDS011;4073;42.626;25.386;2023-04-03T06:44:36;16.33;;;9.40;;
8060;SDS011;4073;42.626;25.386;2023-04-03T06:47:02;11.70;;;7.33;;
8060;SDS011;4073;42.626;25.386;2023-04-03T06:49:28;18.40;;;11.20;;
8060;SDS011;4073;42.626;25.386;2023-04-03T06:51:54;8.63;;;7.20;;
8060;SDS011;4073;42.626;25.386;2023-04-03T06:54:21;12.27;;;6.10;;
8060;SDS011;4073;42.626;25.386;2023-04-03T06:56:47;6.13;;;5.53;;
8060;SDS011;4073;42.626;25.386;2023-04-03T06:59:12;12.90;;;9.77;;
8060;SDS011;4073;42.626;25.386;2023-04-03T07:01:38;8.47;;;6.17;;
8060;SDS011;4073;42.626;25.386;2023-04-03T07:04:04;5.57;;;5.03;;
8060;SDS011;4073;42.626;25.386;2023-04-03T07:06:30;7.30;;;5.10;;
8060;SDS011;4073;42.626;25.386;2023-04-03T07:08:57;4.23;;;3.80;;
8060;SDS011;4073;42.626;25.386;2023-04-03T07:11:22;9.00;;;5.17;;
8060;SDS011;4073;42.626;25.386;2023-04-03T07:13:48;5.90;;;4.67;;
8060;SDS011;4073;42.626;25.386;2023-04-03T07:16:14;4.73;;;4.07;;
8060;SDS011;4073;42.626;25.386;2023-04-03T07:18:40;4.27;;;3.57;;
8060;SDS011;4073;42.626;25.386;2023-04-03T07:21:06;4.53;;;2.67;;
8060;SDS011;4073;42.626;25.386;2023-04-03T07:23:32;3.20;;;2.43;;
8060;SDS011;4073;42.626;25.386;2023-04-03T07:25:58;3.27;;;2.40;;
8060;SDS011;4073;42.626;25.386;2023-04-03T07:28:24;3.93;;;2.77;;
8060;SDS011;4073;42.626;25.386;2023-04-03T07:31:01;4.80;;;3.60;;
8060;SDS011;4073;42.626;25.386;2023-04-03T07:33:33;9.30;;;5.23;;
8060;SDS011;4073;42.626;25.386;2023-04-03T07:36:00;8.93;;;5.60;;
8060;SDS011;4073;42.626;25.386;2023-04-03T07:38:26;6.90;;;5.97;;
8060;SDS011;4073;42.626;25.386;2023-04-03T07:40:51;7.13;;;6.07;;
8060;SDS011;4073;42.626;25.386;2023-04-03T07:43:18;8.77;;;6.43;;
8060;SDS011;4073;42.626;25.386;2023-04-03T07:45:45;8.40;;;7.00;;
8060;SDS011;4073;42.626;25.386;2023-04-03T07:48:12;8.07;;;6.60;;
8060;SDS011;4073;42.626;25.386;2023-04-03T07:50:41;8.50;;;6.60;;
8060;SDS011;4073;42.626;25.386;2023-04-03T07:53:07;6.73;;;5.80;;
8060;SDS011;4073;42.626;25.386;2023-04-03T07:55:33;6.47;;;5.73;;
8060;SDS011;4073;42.626;25.386;2023-04-03T07:57:59;6.77;;;5.93;;
8060;SDS011;4073;42.626;25.386;2023-04-03T08:00:25;8.40;;;6.27;;
8060;SDS011;4073;42.626;25.386;2023-04-03T08:02:50;5.23;;;4.83;;
8060;SDS011;4073;42.626;25.386;2023-04-03T08:05:20;5.57;;;5.10;;
8060;SDS011;4073;42.626;25.386;2023-04-03T08:07:46;5.93;;;4.77;;
8060;SDS011;4073;42.626;25.386;2023-04-03T08:10:13;7.63;;;5.43;;
8060;SDS011;4073;42.626;25.386;2023-04-03T08:12:39;7.50;;;5.37;;
8060;SDS011;4073;42.626;25.386;2023-04-03T08:15:05;6.67;;;5.47;;
8060;SDS011;4073;42.626;25.386;2023-04-03T08:17:33;8.17;;;5.77;;
8060;SDS011;4073;42.626;25.386;2023-04-03T08:19:59;6.03;;;5.30;;
8060;SDS011;4073;42.626;25.386;2023-04-03T08:22:25;8.73;;;4.80;;
8060;SDS011;4073;42.626;25.386;2023-04-03T08:24:51;8.80;;;5.50;;
8060;SDS011;4073;42.626;25.386;2023-04-03T08:27:16;10.77;;;5.47;;
8060;SDS011;4073;42.626;25.386;2023-04-03T08:29:42;8.50;;;5.53;;
8060;SDS011;4073;42.626;25.386;2023-04-03T08:32:07;10.37;;;6.50;;
8060;SDS011;4073;42.626;25.386;2023-04-03T08:34:33;10.70;;;5.57;;
8060;SDS011;4073;42.626;25.386;2023-04-03T08:37:00;8.17;;;4.90;;
8060;SDS011;4073;42.626;25.386;2023-04-03T08:39:26;8.47;;;4.37;;
8060;SDS011;4073;42.626;25.386;2023-04-03T08:41:52;9.57;;;4.87;;
8060;SDS011;4073;42.626;25.386;2023-04-03T08:49:44;5.40;;;3.90;;
8060;SDS011;4073;42.626;25.386;2023-04-03T08:52:15;4.50;;;3.50;;
8060;SDS011;4073;42.626;25.386;2023-04-03T08:54:52;7.33;;;3.57;;
8060;SDS011;4073;42.626;25.386;2023-04-03T08:57:26;3.10;;;2.47;;
8060;SDS011;4073;42.626;25.386;2023-04-03T08:59:57;4.50;;;2.20;;
8060;SDS011;4073;42.626;25.386;2023-04-03T09:02:27;2.80;;;2.20;;
8060;SDS011;4073;42.626;25.386;2023-04-03T09:04:58;4.20;;;2.07;;
8060;SDS011;4073;42.626;25.386;2023-04-03T09:07:36;3.00;;;1.90;;
8060;SDS011;4073;42.626;25.386;2023-04-03T09:10:09;1.97;;;1.50;;
8060;SDS011;4073;42.626;25.386;2023-04-03T09:12:39;3.33;;;2.10;;
8060;SDS011;4073;42.626;25.386;2023-04-03T09:15:18;3.83;;;2.00;;
8060;SDS011;4073;42.626;25.386;2023-04-03T09:20:37;4.23;;;1.90;;
8060;SDS011;4073;42.626;25.386;2023-04-03T09:23:10;3.93;;;2.10;;
8060;SDS011;4073;42.626;25.386;2023-04-03T09:25:39;3.23;;;1.80;;
8060;SDS011;4073;42.626;25.386;2023-04-03T09:28:05;3.93;;;2.07;;
8060;SDS011;4073;42.626;25.386;2023-04-03T09:30:34;2.30;;;2.00;;
8060;SDS011;4073;42.626;25.386;2023-04-03T09:33:01;2.43;;;1.87;;
8060;SDS011;4073;42.626;25.386;2023-04-03T09:35:30;2.00;;;1.90;;
8060;SDS011;4073;42.626;25.386;2023-04-03T09:38:02;3.87;;;1.70;;
8060;SDS011;4073;42.626;25.386;2023-04-03T09:45:42;2.20;;;1.20;;
8060;SDS011;4073;42.626;25.386;2023-04-03T09:51:01;3.47;;;1.57;;
8060;SDS011;4073;42.626;25.386;2023-04-03T09:55:56;1.97;;;1.77;;
8060;SDS011;4073;42.626;25.386;2023-04-03T09:58:32;2.00;;;1.70;;
8060;SDS011;4073;42.626;25.386;2023-04-03T10:01:02;2.70;;;2.33;;
8060;SDS011;4073;42.626;25.386;2023-04-03T10:03:30;3.60;;;2.30;;
8060;SDS011;4073;42.626;25.386;2023-04-03T10:05:57;2.23;;;1.87;;
8060;SDS011;4073;42.626;25.386;2023-04-03T10:08:28;2.20;;;1.87;;
8060;SDS011;4073;42.626;25.386;2023-04-03T10:13:57;3.40;;;2.27;;
8060;SDS011;4073;42.626;25.386;2023-04-03T10:16:26;2.27;;;1.93;;
8060;SDS011;4073;42.626;25.386;2023-04-03T10:24:18;3.50;;;2.50;;
8060;SDS011;4073;42.626;25.386;2023-04-03T10:26:57;3.57;;;2.17;;
8060;SDS011;4073;42.626;25.386;2023-04-03T10:35:12;3.03;;;2.13;;
8060;SDS011;4073;42.626;25.386;2023-04-03T10:40:39;4.57;;;3.77;;
8060;SDS011;4073;42.626;25.386;2023-04-03T10:48:59;2.40;;;2.20;;
8060;SDS011;4073;42.626;25.386;2023-04-03T10:54:18;3.20;;;1.50;;
8060;SDS011;4073;42.626;25.386;2023-04-03T10:56:56;3.87;;;1.97;;
8060;SDS011;4073;42.626;25.386;2023-04-03T10:59:28;2.10;;;1.90;;
8060;SDS011;4073;42.626;25.386;2023-04-03T11:01:59;3.73;;;1.83;;
8060;SDS011;4073;42.626;25.386;2023-04-03T11:04:33;3.17;;;2.30;;
8060;SDS011;4073;42.626;25.386;2023-04-03T11:07:02;2.33;;;1.87;;
8060;SDS011;4073;42.626;25.386;2023-04-03T11:09:35;3.27;;;1.80;;
8060;SDS011;4073;42.626;25.386;2023-04-03T11:12:13;4.73;;;1.60;;
8060;SDS011;4073;42.626;25.386;2023-04-03T11:14:44;5.77;;;1.80;;
8060;SDS011;4073;42.626;25.386;2023-04-03T11:17:54;3.10;;;1.83;;
8060;SDS011;4073;42.626;25.386;2023-04-03T11:22:45;4.07;;;3.20;;
8060;SDS011;4073;42.626;25.386;2023-04-03T11:25:23;1.60;;;1.47;;
8060;SDS011;4073;42.626;25.386;2023-04-03T11:27:57;2.30;;;1.97;;
8060;SDS011;4073;42.626;25.386;2023-04-03T11:30:33;1.83;;;1.73;;
8060;SDS011;4073;42.626;25.386;2023-04-03T11:35:54;2.47;;;1.50;;
8060;SDS011;4073;42.626;25.386;2023-04-03T11:38:25;4.23;;;2.10;;
8060;SDS011;4073;42.626;25.386;2023-04-03T11:40:54;2.20;;;1.63;;
8060;SDS011;4073;42.626;25.386;2023-04-03T11:46:02;2.60;;;2.30;;
8060;SDS011;4073;42.626;25.386;2023-04-03T11:51:01;3.37;;;2.43;;
8060;SDS011;4073;42.626;25.386;2023-04-03T11:53:47;2.00;;;1.87;;
8060;SDS011;4073;42.626;25.386;2023-04-03T12:01:45;2.90;;;2.20;;
8060;SDS011;4073;42.626;25.386;2023-04-03T12:04:25;2.57;;;1.90;;
8060;SDS011;4073;42.626;25.386;2023-04-03T12:07:33;2.90;;;2.60;;
8060;SDS011;4073;42.626;25.386;2023-04-03T12:12:26;6.03;;;3.63;;
8060;SDS011;4073;42.626;25.386;2023-04-03T12:15:17;4.63;;;3.00;;
8060;SDS011;4073;42.626;25.386;2023-04-03T12:17:46;3.07;;;2.60;;
8060;SDS011;4073;42.626;25.386;2023-04-03T12:20:58;3.40;;;3.00;;
8060;SDS011;4073;42.626;25.386;2023-04-03T12:23:27;4.30;;;3.20;;
8060;SDS011;4073;42.626;25.386;2023-04-03T12:26:00;3.83;;;3.03;;
8060;SDS011;4073;42.626;25.386;2023-04-03T12:28:31;4.77;;;3.10;;
8060;SDS011;4073;42.626;25.386;2023-04-03T12:31:02;6.10;;;3.40;;
8060;SDS011;4073;42.626;25.386;2023-04-03T12:35:57;4.20;;;3.47;;
8060;SDS011;4073;42.626;25.386;2023-04-03T12:38:57;4.03;;;3.63;;
8060;SDS011;4073;42.626;25.386;2023-04-03T12:41:44;5.97;;;4.30;;
8060;SDS011;4073;42.626;25.386;2023-04-03T12:47:07;5.30;;;4.07;;
8060;SDS011;4073;42.626;25.386;2023-04-03T12:49:46;4.43;;;3.90;;
8060;SDS011;4073;42.626;25.386;2023-04-03T12:55:14;7.40;;;6.30;;
8060;SDS011;4073;42.626;25.386;2023-04-03T12:57:43;7.70;;;6.63;;
8060;SDS011;4073;42.626;25.386;2023-04-03T13:00:19;8.37;;;7.03;;
8060;SDS011;4073;42.626;25.386;2023-04-03T13:02:46;6.73;;;5.83;;
8060;SDS011;4073;42.626;25.386;2023-04-03T13:05:16;6.23;;;4.87;;
8060;SDS011;4073;42.626;25.386;2023-04-03T13:07:43;7.23;;;5.83;;
8060;SDS011;4073;42.626;25.386;2023-04-03T13:12:35;13.47;;;12.07;;
8060;SDS011;4073;42.626;25.386;2023-04-03T13:15:15;7.43;;;6.57;;
8060;SDS011;4073;42.626;25.386;2023-04-03T13:17:43;7.77;;;6.97;;
8060;SDS011;4073;42.626;25.386;2023-04-03T13:20:10;5.93;;;5.43;;
8060;SDS011;4073;42.626;25.386;2023-04-03T13:23:01;7.70;;;5.10;;
8060;SDS011;4073;42.626;25.386;2023-04-03T13:25:31;8.77;;;6.33;;
8060;SDS011;4073;42.626;25.386;2023-04-03T13:27:59;8.67;;;6.60;;
8060;SDS011;4073;42.626;25.386;2023-04-03T13:30:29;7.03;;;6.33;;
8060;SDS011;4073;42.626;25.386;2023-04-03T13:33:00;5.60;;;4.77;;
8060;SDS011;4073;42.626;25.386;2023-04-03T13:35:38;6.27;;;5.23;;
8060;SDS011;4073;42.626;25.386;2023-04-03T13:43:21;8.07;;;6.23;;
8060;SDS011;4073;42.626;25.386;2023-04-03T13:45:57;5.87;;;5.37;;
8060;SDS011;4073;42.626;25.386;2023-04-03T13:48:43;6.97;;;6.27;;
8060;SDS011;4073;42.626;25.386;2023-04-03T13:56:24;8.07;;;7.03;;
8060;SDS011;4073;42.626;25.386;2023-04-03T13:58:53;7.57;;;6.80;;
8060;SDS011;4073;42.626;25.386;2023-04-03T14:04:19;10.50;;;8.93;;
8060;SDS011;4073;42.626;25.386;2023-04-03T14:06:45;11.23;;;8.53;;
8060;SDS011;4073;42.626;25.386;2023-04-03T14:09:11;14.30;;;8.90;;
8060;SDS011;4073;42.626;25.386;2023-04-03T14:11:37;9.87;;;7.90;;
8060;SDS011;4073;42.626;25.386;2023-04-03T14:14:06;10.63;;;8.33;;
8060;SDS011;4073;42.626;25.386;2023-04-03T14:16:38;10.53;;;8.37;;
8060;SDS011;4073;42.626;25.386;2023-04-03T14:19:06;11.50;;;9.83;;
8060;SDS011;4073;42.626;25.386;2023-04-03T14:21:31;12.80;;;9.10;;
8060;SDS011;4073;42.626;25.386;2023-04-03T14:23:57;12.43;;;8.90;;
8060;SDS011;4073;42.626;25.386;2023-04-03T14:26:23;9.53;;;8.53;;
8060;SDS011;4073;42.626;25.386;2023-04-03T14:28:50;11.80;;;8.27;;
8060;SDS011;4073;42.626;25.386;2023-04-03T14:31:18;10.37;;;8.33;;
8060;SDS011;4073;42.626;25.386;2023-04-03T14:33:45;13.57;;;9.63;;
8060;SDS011;4073;42.626;25.386;2023-04-03T14:36:13;11.93;;;9.33;;
8060;SDS011;4073;42.626;25.386;2023-04-03T14:38:41;9.60;;;8.50;;
8060;SDS011;4073;42.626;25.386;2023-04-03T14:41:07;13.23;;;7.67;;
8060;SDS011;4073;42.626;25.386;2023-04-03T14:43:35;13.47;;;10.97;;
8060;SDS011;4073;42.626;25.386;2023-04-03T14:46:01;15.17;;;10.17;;
8060;SDS011;4073;42.626;25.386;2023-04-03T14:48:27;11.50;;;8.73;;
8060;SDS011;4073;42.626;25.386;2023-04-03T14:50:55;13.40;;;7.73;;
8060;SDS011;4073;42.626;25.386;2023-04-03T14:53:20;15.90;;;8.73;;
8060;SDS011;4073;42.626;25.386;2023-04-03T14:55:50;9.33;;;8.33;;
8060;SDS011;4073;42.626;25.386;2023-04-03T14:58:18;11.37;;;9.93;;
8060;SDS011;4073;42.626;25.386;2023-04-03T15:00:45;10.63;;;8.07;;
8060;SDS011;4073;42.626;25.386;2023-04-03T15:03:16;11.27;;;8.10;;
8060;SDS011;4073;42.626;25.386;2023-04-03T15:05:43;13.40;;;10.30;;
8060;SDS011;4073;42.626;25.386;2023-04-03T15:08:18;14.90;;;11.60;;
8060;SDS011;4073;42.626;25.386;2023-04-03T15:10:49;13.67;;;8.33;;
8060;SDS011;4073;42.626;25.386;2023-04-03T15:13:14;7.93;;;7.13;;
8060;SDS011;4073;42.626;25.386;2023-04-03T15:15:40;6.40;;;5.57;;
8060;SDS011;4073;42.626;25.386;2023-04-03T15:18:07;7.77;;;5.80;;
8060;SDS011;4073;42.626;25.386;2023-04-03T15:20:38;6.83;;;5.90;;
8060;SDS011;4073;42.626;25.386;2023-04-03T15:23:04;7.23;;;6.53;;
8060;SDS011;4073;42.626;25.386;2023-04-03T15:25:31;6.80;;;6.10;;
8060;SDS011;4073;42.626;25.386;2023-04-03T15:27:57;8.93;;;8.03;;
8060;SDS011;4073;42.626;25.386;2023-04-03T15:30:23;9.10;;;6.80;;
8060;SDS011;4073;42.626;25.386;2023-04-03T15:32:49;17.20;;;12.63;;
8060;SDS011;4073;42.626;25.386;2023-04-03T15:35:15;11.37;;;8.27;;
8060;SDS011;4073;42.626;25.386;2023-04-03T15:37:40;10.43;;;8.00;;
8060;SDS011;4073;42.626;25.386;2023-04-03T15:40:06;17.47;;;15.33;;
8060;SDS011;4073;42.626;25.386;2023-04-03T15:42:32;9.00;;;8.17;;
8060;SDS011;4073;42.626;25.386;2023-04-03T15:44:58;9.53;;;6.93;;
8060;SDS011;4073;42.626;25.386;2023-04-03T15:47:24;12.63;;;8.60;;
8060;SDS011;4073;42.626;25.386;2023-04-03T15:49:50;10.87;;;7.27;;
8060;SDS011;4073;42.626;25.386;2023-04-03T15:52:15;9.63;;;6.63;;
8060;SDS011;4073;42.626;25.386;2023-04-03T15:54:41;9.20;;;6.40;;
8060;SDS011;4073;42.626;25.386;2023-04-03T15:57:06;9.77;;;7.17;;
8060;SDS011;4073;42.626;25.386;2023-04-03T15:59:32;7.90;;;6.93;;
8060;SDS011;4073;42.626;25.386;2023-04-03T16:01:57;8.10;;;6.03;;
8060;SDS011;4073;42.626;25.386;2023-04-03T16:04:25;6.60;;;5.10;;
8060;SDS011;4073;42.626;25.386;2023-04-03T16:06:51;9.00;;;6.63;;
8060;SDS011;4073;42.626;25.386;2023-04-03T16:09:17;12.67;;;7.00;;
8060;SDS011;4073;42.626;25.386;2023-04-03T16:11:42;9.63;;;7.00;;
8060;SDS011;4073;42.626;25.386;2023-04-03T16:14:08;9.10;;;5.50;;
8060;SDS011;4073;42.626;25.386;2023-04-03T16:16:35;24.13;;;16.07;;
8060;SDS011;4073;42.626;25.386;2023-04-03T16:19:02;12.30;;;6.63;;
8060;SDS011;4073;42.626;25.386;2023-04-03T16:21:28;8.57;;;6.50;;
8060;SDS011;4073;42.626;25.386;2023-04-03T16:23:56;7.63;;;6.13;;
8060;SDS011;4073;42.626;25.386;2023-04-03T16:26:23;7.30;;;6.60;;
8060;SDS011;4073;42.626;25.386;2023-04-03T16:28:48;9.27;;;7.80;;
8060;SDS011;4073;42.626;25.386;2023-04-03T16:31:14;8.80;;;7.87;;
8060;SDS011;4073;42.626;25.386;2023-04-03T16:33:39;7.27;;;6.27;;
8060;SDS011;4073;42.626;25.386;2023-04-03T16:36:05;8.80;;;6.73;;
8060;SDS011;4073;42.626;25.386;2023-04-03T16:38:31;8.37;;;6.57;;
8060;SDS011;4073;42.626;25.386;2023-04-03T16:40:57;7.43;;;6.17;;